createdAt,value
2022-09-30T00:00:20.094Z,94593
2022-09-30T00:01:28.862Z,94594
2022-09-30T00:02:37.563Z,94597
2022-09-30T00:03:46.219Z,94598
2022-09-30T00:04:55.884Z,94593
2022-09-30T00:06:08.373Z,94598
2022-09-30T00:07:15.373Z,94604
2022-09-30T00:08:24.043Z,94603
2022-09-30T00:09:33.868Z,94600
2022-09-30T00:10:42.459Z,94599
2022-09-30T00:11:52.151Z,94603
2022-09-30T00:13:01.865Z,94596
2022-09-30T00:14:10.573Z,94601
2022-09-30T00:15:20.302Z,94600
2022-09-30T00:16:29.056Z,94603
2022-09-30T00:17:38.697Z,94608
2022-09-30T00:18:47.409Z,94608
2022-09-30T00:19:55.070Z,94607
2022-09-30T00:21:04.794Z,94609
2022-09-30T00:22:14.504Z,94612
2022-09-30T00:23:24.210Z,94615
2022-09-30T00:24:33.991Z,94617
2022-09-30T00:25:42.754Z,94620
2022-09-30T00:26:51.707Z,94619
2022-09-30T00:28:01.424Z,94619
2022-09-30T00:29:11.107Z,94619
2022-09-30T00:30:19.805Z,94615
2022-09-30T00:31:28.555Z,94612
2022-09-30T00:32:38.230Z,94617
2022-09-30T00:33:47.926Z,94613
2022-09-30T00:34:55.638Z,94612
2022-09-30T00:36:04.331Z,94609
2022-09-30T00:37:14.020Z,94608
2022-09-30T00:38:22.902Z,94607
2022-09-30T00:39:30.632Z,94603
2022-09-30T00:40:40.316Z,94603
2022-09-30T00:41:48.978Z,94605
2022-09-30T00:42:58.696Z,94600
2022-09-30T00:50:05.032Z,94602
2022-09-30T00:51:14.726Z,94600
2022-09-30T00:52:23.419Z,94604
2022-09-30T00:53:32.100Z,94605
2022-09-30T00:54:40.822Z,94606
2022-09-30T00:55:49.495Z,94609
2022-09-30T00:56:59.163Z,94612
2022-09-30T00:58:06.856Z,94614
2022-09-30T00:59:15.512Z,94614
2022-09-30T01:00:24.339Z,94617
2022-09-30T01:01:31.966Z,94617
2022-09-30T01:02:41.647Z,94624
2022-09-30T01:03:50.313Z,94627
2022-09-30T01:04:59.988Z,94625
2022-09-30T01:06:09.691Z,94631
2022-09-30T01:07:18.343Z,94634
2022-09-30T01:08:28.037Z,94631
2022-09-30T01:09:37.748Z,94630
2022-09-30T01:10:46.395Z,94630
2022-09-30T01:11:55.166Z,94635
2022-09-30T01:13:04.844Z,94632
2022-09-30T01:14:13.506Z,94631
2022-09-30T01:15:23.197Z,94634
2022-09-30T01:16:30.892Z,94630
2022-09-30T01:17:39.585Z,94629
2022-09-30T01:18:49.260Z,94629
2022-09-30T01:19:57.928Z,94627
2022-09-30T01:21:07.612Z,94631
2022-09-30T01:22:16.301Z,94636
2022-09-30T01:23:25.964Z,94632
2022-09-30T01:24:35.642Z,94631
2022-09-30T01:25:44.318Z,94631
2022-09-30T01:26:53.010Z,94627
2022-09-30T01:28:02.704Z,94634
2022-09-30T01:29:10.391Z,94631
2022-09-30T01:30:19.059Z,94625
2022-09-30T01:31:28.809Z,94628
2022-09-30T01:32:37.385Z,94628
2022-09-30T01:33:47.062Z,94628
2022-09-30T01:34:55.764Z,94635
2022-09-30T01:36:04.450Z,94631
2022-09-30T01:37:13.124Z,94637
2022-09-30T01:38:21.827Z,94641
2022-09-30T01:39:30.481Z,94648
2022-09-30T01:40:39.235Z,94651
2022-09-30T01:41:48.904Z,94649
2022-09-30T01:42:58.579Z,94652
2022-09-30T01:44:08.255Z,94658
2022-09-30T01:45:17.931Z,94658
2022-09-30T01:46:27.645Z,94656
2022-09-30T01:47:35.275Z,94656
2022-09-30T01:48:43.954Z,94661
2022-09-30T01:49:53.631Z,94661
2022-09-30T01:51:03.296Z,94657
2022-09-30T01:52:13.000Z,94660
2022-09-30T01:53:21.665Z,94661
2022-09-30T01:54:30.359Z,94662
2022-09-30T01:55:40.019Z,94662
2022-09-30T01:56:49.704Z,94661
2022-09-30T01:57:59.406Z,94658
2022-09-30T01:59:08.075Z,94660
2022-09-30T02:00:15.727Z,94656
2022-09-30T02:01:23.425Z,94657
2022-09-30T02:02:32.097Z,94657
2022-09-30T02:03:41.762Z,94655
2022-09-30T02:04:49.436Z,94656
2022-09-30T02:05:59.121Z,94650
2022-09-30T02:07:08.810Z,94653
2022-09-30T02:08:16.467Z,94650
2022-09-30T02:09:26.288Z,94651
2022-09-30T02:10:35.870Z,94655
2022-09-30T02:11:45.530Z,94655
2022-09-30T02:12:55.223Z,94658
2022-09-30T02:14:02.904Z,94662
2022-09-30T02:15:12.602Z,94660
2022-09-30T02:16:22.351Z,94660
2022-09-30T02:17:29.954Z,94657
2022-09-30T02:18:38.617Z,94657
2022-09-30T02:19:47.304Z,94658
2022-09-30T02:20:56.114Z,94657
2022-09-30T02:22:05.789Z,94657
2022-09-30T02:23:13.454Z,94657
2022-09-30T02:24:23.119Z,94652
2022-09-30T02:25:32.778Z,94654
2022-09-30T02:26:40.483Z,94655
2022-09-30T02:27:50.139Z,94651
2022-09-30T02:28:58.813Z,94652
2022-09-30T02:30:07.470Z,94651
2022-09-30T02:31:17.196Z,94654
2022-09-30T02:32:25.835Z,94653
2022-09-30T02:33:34.494Z,94655
2022-09-30T02:34:44.178Z,94654
2022-09-30T02:35:51.852Z,94656
2022-09-30T02:37:01.531Z,94657
2022-09-30T02:38:11.239Z,94656
2022-09-30T02:39:21.015Z,94654
2022-09-30T02:40:30.601Z,94648
2022-09-30T02:41:39.274Z,94648
2022-09-30T02:42:47.963Z,94651
2022-09-30T02:43:57.647Z,94651
2022-09-30T02:45:05.337Z,94651
2022-09-30T02:46:14.052Z,94650
2022-09-30T02:47:22.705Z,94648
2022-09-30T02:48:31.414Z,94650
2022-09-30T02:49:41.103Z,94654
2022-09-30T02:50:48.764Z,94652
2022-09-30T02:51:58.433Z,94656
2022-09-30T02:53:08.117Z,94653
2022-09-30T02:54:16.785Z,94659
2022-09-30T02:55:25.492Z,94656
2022-09-30T02:56:34.147Z,94652
2022-09-30T02:57:43.862Z,94657
2022-09-30T02:58:53.665Z,94653
2022-09-30T03:00:04.150Z,94657
2022-09-30T03:01:12.958Z,94657
2022-09-30T03:02:22.657Z,94666
2022-09-30T03:03:31.306Z,94667
2022-09-30T03:04:40.987Z,94666
2022-09-30T03:05:49.664Z,94673
2022-09-30T03:06:58.375Z,94671
2022-09-30T03:08:08.112Z,94677
2022-09-30T03:09:15.952Z,94676
2022-09-30T03:10:25.526Z,94678
2022-09-30T03:11:35.218Z,94678
2022-09-30T03:12:42.910Z,94683
2022-09-30T03:13:52.591Z,94683
2022-09-30T03:15:01.306Z,94689
2022-09-30T03:16:13.873Z,94690
2022-09-30T03:17:20.619Z,94689
2022-09-30T03:18:28.345Z,94692
2022-09-30T03:19:37.016Z,94687
2022-09-30T03:20:46.694Z,94687
2022-09-30T03:21:55.373Z,94682
2022-09-30T03:23:04.024Z,94688
2022-09-30T03:24:12.939Z,94686
2022-09-30T03:25:22.620Z,94686
2022-09-30T03:26:32.286Z,94682
2022-09-30T03:27:39.953Z,94688
2022-09-30T03:28:48.670Z,94691
2022-09-30T03:29:58.361Z,94691
2022-09-30T03:31:07.083Z,94691
2022-09-30T03:32:15.704Z,94695
2022-09-30T03:33:24.374Z,94695
2022-09-30T03:34:33.034Z,94692
2022-09-30T03:35:42.709Z,94694
2022-09-30T03:36:51.371Z,94695
2022-09-30T03:38:01.024Z,94702
2022-09-30T03:39:10.698Z,94705
2022-09-30T03:40:18.367Z,94707
2022-09-30T03:41:27.068Z,94703
2022-09-30T03:42:35.760Z,94712
2022-09-30T03:43:45.463Z,94719
2022-09-30T03:44:55.145Z,94723
2022-09-30T03:46:03.824Z,94724
2022-09-30T03:47:13.550Z,94726
2022-09-30T03:48:23.229Z,94725
2022-09-30T03:49:31.903Z,94727
2022-09-30T03:50:40.564Z,94726
2022-09-30T03:51:51.012Z,94729
2022-09-30T03:52:57.926Z,94728
2022-09-30T03:54:07.603Z,94726
2022-09-30T03:55:16.290Z,94725
2022-09-30T03:56:25.971Z,94725
2022-09-30T03:57:33.631Z,94725
2022-09-30T03:58:43.331Z,94727
2022-09-30T03:59:52.004Z,94727
2022-09-30T04:00:59.804Z,94720
2022-09-30T04:02:09.483Z,94723
2022-09-30T04:03:17.042Z,94724
2022-09-30T04:04:26.684Z,94726
2022-09-30T04:05:36.349Z,94724
2022-09-30T04:06:44.050Z,94725
2022-09-30T04:07:52.750Z,94729
2022-09-30T04:09:02.463Z,94732
2022-09-30T04:10:12.132Z,94732
2022-09-30T04:11:20.812Z,94732
2022-09-30T04:12:29.477Z,94734
2022-09-30T04:13:38.137Z,94734
2022-09-30T04:14:47.819Z,94733
2022-09-30T04:15:55.556Z,94741
2022-09-30T04:17:04.217Z,94740
2022-09-30T04:18:13.940Z,94740
2022-09-30T04:19:22.747Z,94742
2022-09-30T04:20:31.338Z,94743
2022-09-30T04:21:40.031Z,94746
2022-09-30T04:22:48.691Z,94738
2022-09-30T04:23:58.390Z,94743
2022-09-30T04:25:07.070Z,94746
2022-09-30T04:26:15.763Z,94745
2022-09-30T04:27:25.519Z,94744
2022-09-30T04:28:33.201Z,94741
2022-09-30T04:29:42.895Z,94742
2022-09-30T04:30:52.601Z,94742
2022-09-30T04:32:01.272Z,94740
2022-09-30T04:33:10.992Z,94744
2022-09-30T04:34:19.679Z,94740
2022-09-30T04:35:28.375Z,94743
2022-09-30T04:36:38.044Z,94745
2022-09-30T04:37:45.711Z,94745
2022-09-30T04:38:54.418Z,94745
2022-09-30T04:40:03.095Z,94742
2022-09-30T04:41:11.766Z,94746
2022-09-30T04:42:21.445Z,94749
2022-09-30T04:43:29.116Z,94748
2022-09-30T04:44:37.813Z,94750
2022-09-30T04:45:47.559Z,94753
2022-09-30T04:46:55.183Z,94752
2022-09-30T04:48:02.901Z,94755
2022-09-30T04:49:12.597Z,94759
2022-09-30T04:50:21.304Z,94762
2022-09-30T04:51:31.014Z,94763
2022-09-30T04:52:39.658Z,94762
2022-09-30T04:53:49.362Z,94763
2022-09-30T04:54:59.059Z,94766
2022-09-30T04:56:08.785Z,94766
2022-09-30T04:57:17.486Z,94766
2022-09-30T04:58:26.183Z,94770
2022-09-30T04:59:35.857Z,94772
2022-09-30T05:00:45.641Z,94771
2022-09-30T05:01:53.346Z,94771
2022-09-30T05:03:03.022Z,94772
2022-09-30T05:04:12.713Z,94777
2022-09-30T05:05:21.396Z,94775
2022-09-30T05:06:30.085Z,94776
2022-09-30T05:07:39.824Z,94775
2022-09-30T05:08:49.485Z,94778
2022-09-30T05:09:59.147Z,94778
2022-09-30T05:11:06.816Z,94773
2022-09-30T05:12:15.488Z,94775
2022-09-30T05:13:25.183Z,94775
2022-09-30T05:14:33.878Z,94776
2022-09-30T05:15:42.662Z,94772
2022-09-30T05:16:52.428Z,94779
2022-09-30T05:18:02.098Z,94776
2022-09-30T05:19:11.866Z,94779
2022-09-30T05:20:21.198Z,94779
2022-09-30T05:21:28.207Z,94781
2022-09-30T05:22:37.989Z,94785
2022-09-30T05:23:47.751Z,94785
2022-09-30T05:24:57.447Z,94791
2022-09-30T05:26:11.211Z,94791
2022-09-30T05:27:16.826Z,94793
2022-09-30T05:28:26.515Z,94794
2022-09-30T05:29:36.203Z,94788
2022-09-30T05:30:46.078Z,94795
2022-09-30T05:31:55.817Z,94795
2022-09-30T05:33:04.454Z,94792
2022-09-30T05:34:13.157Z,94796
2022-09-30T05:35:21.841Z,94795
2022-09-30T05:36:30.568Z,94797
2022-09-30T05:37:40.282Z,94795
2022-09-30T05:38:49.951Z,94795
2022-09-30T05:39:58.751Z,94799
2022-09-30T05:41:08.334Z,94803
2022-09-30T05:42:16.014Z,94802
2022-09-30T05:43:24.724Z,94800
2022-09-30T05:44:33.388Z,94804
2022-09-30T05:45:42.089Z,94804
2022-09-30T05:46:51.901Z,94805
2022-09-30T05:48:00.560Z,94800
2022-09-30T05:49:09.233Z,94806
2022-09-30T05:50:19.066Z,94810
2022-09-30T05:51:26.886Z,94807
2022-09-30T05:52:36.592Z,94810
2022-09-30T05:53:46.317Z,94816
2022-09-30T05:54:55.063Z,94819
2022-09-30T05:56:04.768Z,94818
2022-09-30T05:57:13.416Z,94818
2022-09-30T05:58:23.139Z,94824
2022-09-30T05:59:30.829Z,94825
2022-09-30T06:00:39.490Z,94825
2022-09-30T06:01:49.239Z,94822
2022-09-30T06:02:57.924Z,94829
2022-09-30T06:04:07.517Z,94829
2022-09-30T06:05:16.233Z,94829
2022-09-30T06:06:25.932Z,94831
2022-09-30T06:07:36.608Z,94828
2022-09-30T06:08:45.276Z,94831
2022-09-30T06:09:53.967Z,94835
2022-09-30T06:11:03.684Z,94835
2022-09-30T06:12:12.377Z,94832
2022-09-30T06:13:22.036Z,94838
2022-09-30T06:14:31.741Z,94834
2022-09-30T06:15:40.415Z,94839
2022-09-30T06:16:50.181Z,94838
2022-09-30T06:17:58.817Z,94836
2022-09-30T06:19:08.545Z,94835
2022-09-30T06:20:17.274Z,94838
2022-09-30T06:21:26.973Z,94838
2022-09-30T06:22:36.683Z,94844
2022-09-30T06:23:45.365Z,94844
2022-09-30T06:24:55.221Z,94847
2022-09-30T06:26:03.715Z,94849
2022-09-30T06:27:11.373Z,94853
2022-09-30T06:28:21.097Z,94851
2022-09-30T06:29:30.737Z,94854
2022-09-30T06:30:38.394Z,94852
2022-09-30T06:31:47.315Z,94855
2022-09-30T06:32:55.929Z,94853
2022-09-30T06:34:05.770Z,94853
2022-09-30T06:35:15.444Z,94855
2022-09-30T06:36:23.112Z,94853
2022-09-30T06:37:31.765Z,94849
2022-09-30T06:38:41.444Z,94852
2022-09-30T06:39:51.158Z,94854
2022-09-30T06:41:00.855Z,94854
2022-09-30T06:42:09.512Z,94859
2022-09-30T06:43:18.187Z,94854
2022-09-30T06:44:27.898Z,94861
2022-09-30T06:45:37.603Z,94865
2022-09-30T06:46:53.469Z,94863
2022-09-30T06:48:00.298Z,94868
2022-09-30T06:49:12.421Z,94866
2022-09-30T06:50:24.339Z,94868
2022-09-30T06:51:26.888Z,94872
2022-09-30T06:52:36.573Z,94872
2022-09-30T06:53:48.992Z,94872
2022-09-30T06:54:55.913Z,94882
2022-09-30T06:56:04.601Z,94881
2022-09-30T06:57:14.309Z,94884
2022-09-30T06:58:21.981Z,94883
2022-09-30T06:59:30.667Z,94886
2022-09-30T07:00:40.363Z,94886
2022-09-30T07:01:49.076Z,94882
2022-09-30T07:02:58.753Z,94887
2022-09-30T07:04:08.459Z,94895
2022-09-30T07:05:17.164Z,94893
2022-09-30T07:06:26.889Z,94888
2022-09-30T07:07:35.556Z,94894
2022-09-30T07:08:44.272Z,94894
2022-09-30T07:09:55.337Z,94896
2022-09-30T07:11:02.597Z,94897
2022-09-30T07:12:12.281Z,94898
2022-09-30T07:13:19.949Z,94902
2022-09-30T07:14:30.662Z,94903
2022-09-30T07:15:40.400Z,94906
2022-09-30T07:16:50.125Z,94908
2022-09-30T07:17:58.787Z,94909
2022-09-30T07:19:07.478Z,94906
2022-09-30T07:20:16.177Z,94905
2022-09-30T07:21:25.852Z,94906
2022-09-30T07:22:33.561Z,94903
2022-09-30T07:23:42.251Z,94902
2022-09-30T07:24:51.938Z,94900
2022-09-30T07:26:00.658Z,94902
2022-09-30T07:27:09.312Z,94906
2022-09-30T07:28:18.010Z,94902
2022-09-30T07:29:26.734Z,94904
2022-09-30T07:30:37.389Z,94899
2022-09-30T07:31:47.148Z,94900
2022-09-30T07:32:56.812Z,94901
2022-09-30T07:34:06.498Z,94904
2022-09-30T07:35:15.217Z,94905
2022-09-30T07:36:26.170Z,94901
2022-09-30T07:37:34.890Z,94894
2022-09-30T07:38:43.567Z,94895
2022-09-30T07:39:53.272Z,94895
2022-09-30T07:41:01.988Z,94890
2022-09-30T07:42:10.684Z,94892
2022-09-30T07:43:21.408Z,94897
2022-09-30T07:44:30.117Z,94899
2022-09-30T07:45:38.876Z,94893
2022-09-30T07:46:47.610Z,94904
2022-09-30T07:47:57.337Z,94895
2022-09-30T07:49:07.048Z,94896
2022-09-30T07:50:15.818Z,94895
2022-09-30T07:51:25.533Z,94896
2022-09-30T07:52:33.249Z,94899
2022-09-30T07:53:42.986Z,94900
2022-09-30T07:54:52.749Z,94900
2022-09-30T07:56:01.430Z,94902
2022-09-30T07:57:11.802Z,94904
2022-09-30T07:58:20.856Z,94906
2022-09-30T07:59:30.555Z,94911
2022-09-30T08:00:43.801Z,94911
2022-09-30T08:01:49.119Z,94916
2022-09-30T08:02:57.772Z,94915
2022-09-30T08:04:07.535Z,94917
2022-09-30T08:05:15.138Z,94921
2022-09-30T08:06:24.849Z,94920
2022-09-30T08:07:33.566Z,94923
2022-09-30T08:08:42.272Z,94924
2022-09-30T08:09:52.040Z,94926
2022-09-30T08:10:59.668Z,94926
2022-09-30T08:12:09.344Z,94926
2022-09-30T08:13:19.015Z,94926
2022-09-30T08:14:27.730Z,94929
2022-09-30T08:15:36.434Z,94926
2022-09-30T08:16:45.135Z,94924
2022-09-30T08:17:54.809Z,94926
2022-09-30T08:19:04.518Z,94925
2022-09-30T08:20:13.764Z,94925
2022-09-30T08:21:20.862Z,94926
2022-09-30T08:22:30.539Z,94925
2022-09-30T08:23:38.286Z,94930
2022-09-30T08:24:46.978Z,94930
2022-09-30T08:25:55.720Z,94937
2022-09-30T08:27:04.446Z,94936
2022-09-30T08:28:14.115Z,94934
2022-09-30T08:29:36.039Z,94937
2022-09-30T08:30:32.536Z,94940
2022-09-30T08:31:42.277Z,94941
2022-09-30T08:32:49.915Z,94935
2022-09-30T08:33:59.610Z,94936
2022-09-30T08:35:09.355Z,94933
2022-09-30T08:36:19.164Z,94935
2022-09-30T08:37:28.765Z,94936
2022-09-30T08:38:36.452Z,94937
2022-09-30T08:39:46.147Z,94945
2022-09-30T08:40:56.119Z,94944
2022-09-30T08:42:09.161Z,94944
2022-09-30T08:43:14.457Z,94948
2022-09-30T08:44:23.329Z,94942
2022-09-30T08:45:31.987Z,94944
2022-09-30T08:46:41.656Z,94945
2022-09-30T08:47:49.342Z,94947
2022-09-30T08:48:59.894Z,94951
2022-09-30T08:50:08.779Z,94955
2022-09-30T08:51:17.480Z,94954
2022-09-30T08:52:30.829Z,94955
2022-09-30T08:53:37.898Z,94956
2022-09-30T08:54:46.592Z,94956
2022-09-30T08:55:56.324Z,94954
2022-09-30T08:57:04.016Z,94960
2022-09-30T08:58:12.731Z,94963
2022-09-30T08:59:22.579Z,94968
2022-09-30T09:00:32.187Z,94968
2022-09-30T09:01:40.895Z,94972
2022-09-30T09:02:50.671Z,94972
2022-09-30T09:03:59.314Z,94972
2022-09-30T09:05:08.993Z,94970
2022-09-30T09:06:16.693Z,94973
2022-09-30T09:07:25.366Z,94973
2022-09-30T09:08:35.099Z,94978
2022-09-30T09:09:42.788Z,94977
2022-09-30T09:10:51.482Z,94976
2022-09-30T09:12:01.145Z,94976
2022-09-30T09:13:10.853Z,94980
2022-09-30T09:14:20.537Z,94982
2022-09-30T09:15:28.248Z,94987
2022-09-30T09:16:37.980Z,94988
2022-09-30T09:18:04.487Z,94988
2022-09-30T09:18:58.284Z,94991
2022-09-30T09:20:07.017Z,94989
2022-09-30T09:21:16.734Z,94992
2022-09-30T09:22:26.447Z,94989
2022-09-30T09:23:36.148Z,95000
2022-09-30T09:24:44.882Z,94994
2022-09-30T09:25:53.553Z,94999
2022-09-30T09:27:03.299Z,94997
2022-09-30T09:28:12.004Z,95000
2022-09-30T09:29:21.699Z,94999
2022-09-30T09:30:30.326Z,94998
2022-09-30T09:31:39.040Z,94998
2022-09-30T09:32:48.695Z,95000
2022-09-30T09:33:56.368Z,95002
2022-09-30T09:35:06.041Z,95004
2022-09-30T09:36:15.775Z,95003
2022-09-30T09:37:25.428Z,95006
2022-09-30T09:38:34.150Z,95005
2022-09-30T09:39:43.821Z,95009
2022-09-30T09:40:53.609Z,95007
2022-09-30T09:42:03.158Z,95009
2022-09-30T09:43:11.822Z,95006
2022-09-30T09:44:21.677Z,95007
2022-09-30T09:45:31.423Z,95005
2022-09-30T09:46:39.989Z,95002
2022-09-30T09:47:49.667Z,95008
2022-09-30T09:48:59.364Z,95002
2022-09-30T09:50:08.204Z,95002
2022-09-30T09:51:17.870Z,95007
2022-09-30T09:52:27.544Z,95012
2022-09-30T09:53:37.236Z,95011
2022-09-30T09:54:44.910Z,95016
2022-09-30T09:55:53.616Z,95017
2022-09-30T09:57:03.336Z,95006
2022-09-30T09:58:10.993Z,95007
2022-09-30T09:59:20.756Z,95000
2022-09-30T10:00:29.353Z,94996
2022-09-30T10:01:39.147Z,94992
2022-09-30T10:02:48.778Z,94991
2022-09-30T10:03:57.438Z,94991
2022-09-30T10:05:06.132Z,94989
2022-09-30T10:06:14.819Z,94990
2022-09-30T10:07:22.494Z,94988
2022-09-30T10:08:31.181Z,94988
2022-09-30T10:09:39.845Z,94996
2022-09-30T10:10:49.541Z,94998
2022-09-30T10:11:59.235Z,95003
2022-09-30T10:13:07.972Z,95003
2022-09-30T10:14:16.592Z,95008
2022-09-30T10:15:26.267Z,95005
2022-09-30T10:16:34.981Z,95006
2022-09-30T10:17:43.654Z,95007
2022-09-30T10:18:52.348Z,95013
2022-09-30T10:20:01.016Z,95005
2022-09-30T10:21:10.693Z,95004
2022-09-30T10:22:19.360Z,94997
2022-09-30T10:23:28.062Z,95003
2022-09-30T10:24:37.741Z,95008
2022-09-30T10:25:45.430Z,95009
2022-09-30T10:26:54.111Z,95012
2022-09-30T10:28:03.814Z,95010
2022-09-30T10:29:13.470Z,95012
2022-09-30T10:30:23.131Z,95008
2022-09-30T10:31:30.877Z,95005
2022-09-30T10:32:40.464Z,95001
2022-09-30T10:33:50.138Z,94998
2022-09-30T10:34:59.786Z,95003
2022-09-30T10:36:08.481Z,95003
2022-09-30T10:37:17.157Z,95004
2022-09-30T10:38:26.865Z,95011
2022-09-30T10:39:36.524Z,95006
2022-09-30T10:40:45.200Z,95004
2022-09-30T10:41:54.922Z,95003
2022-09-30T10:43:04.571Z,95003
2022-09-30T10:44:12.228Z,95002
2022-09-30T10:45:20.919Z,95001
2022-09-30T10:46:30.617Z,95003
2022-09-30T10:47:39.365Z,95002
2022-09-30T10:48:49.156Z,95002
2022-09-30T10:49:56.878Z,95004
2022-09-30T10:51:05.530Z,95007
2022-09-30T10:52:15.227Z,95011
2022-09-30T10:53:22.917Z,95014
2022-09-30T10:54:31.586Z,95018
2022-09-30T10:55:40.281Z,95021
2022-09-30T10:56:48.947Z,95018
2022-09-30T10:57:58.616Z,95018
2022-09-30T10:59:06.301Z,95020
2022-09-30T11:00:15.012Z,95016
2022-09-30T11:01:25.170Z,95024
2022-09-30T11:02:33.338Z,95028
2022-09-30T11:03:43.104Z,95028
2022-09-30T11:04:52.706Z,95026
2022-09-30T11:06:02.365Z,95031
2022-09-30T11:07:12.018Z,95031
2022-09-30T11:08:19.691Z,95030
2022-09-30T11:09:29.350Z,95034
2022-09-30T11:10:39.073Z,95037
2022-09-30T11:11:47.769Z,95042
2022-09-30T11:12:56.431Z,95043
2022-09-30T11:14:06.121Z,95043
2022-09-30T11:15:14.776Z,95044
2022-09-30T11:16:24.745Z,95046
2022-09-30T11:17:32.154Z,95042
2022-09-30T11:18:40.792Z,95049
2022-09-30T11:19:50.481Z,95051
2022-09-30T11:20:59.156Z,95047
2022-09-30T11:22:07.880Z,95054
2022-09-30T11:23:17.548Z,95050
2022-09-30T11:24:26.211Z,95053
2022-09-30T11:25:35.896Z,95053
2022-09-30T11:26:43.576Z,95055
2022-09-30T11:27:52.317Z,95058
2022-09-30T11:29:01.954Z,95059
2022-09-30T11:30:10.637Z,95061
2022-09-30T11:31:19.322Z,95057
2022-09-30T11:32:27.990Z,95058
2022-09-30T11:33:37.691Z,95057
2022-09-30T11:34:47.372Z,95059
2022-09-30T11:35:55.079Z,95062
2022-09-30T11:37:04.755Z,95058
2022-09-30T11:38:14.432Z,95060
2022-09-30T11:39:24.122Z,95056
2022-09-30T11:40:32.808Z,95052
2022-09-30T11:41:41.468Z,95044
2022-09-30T11:42:49.150Z,95047
2022-09-30T11:43:58.808Z,95046
2022-09-30T11:45:08.519Z,95041
2022-09-30T11:46:18.297Z,95038
2022-09-30T11:47:25.867Z,95038
2022-09-30T11:48:35.555Z,95034
2022-09-30T11:49:45.269Z,95038
2022-09-30T11:50:53.954Z,95031
2022-09-30T11:52:02.629Z,95041
2022-09-30T11:53:12.358Z,95041
2022-09-30T11:54:22.026Z,95039
2022-09-30T11:55:31.723Z,95043
2022-09-30T11:56:39.445Z,95043
2022-09-30T11:57:49.104Z,95046
2022-09-30T11:58:58.795Z,95049
2022-09-30T12:00:07.491Z,95045
2022-09-30T12:01:16.146Z,95054
2022-09-30T12:02:25.924Z,95055
2022-09-30T12:03:34.575Z,95054
2022-09-30T12:04:44.227Z,95050
2022-09-30T12:05:52.913Z,95051
2022-09-30T12:07:02.549Z,95051
2022-09-30T12:08:12.265Z,95048
2022-09-30T12:09:20.904Z,95051
2022-09-30T12:10:30.597Z,95054
2022-09-30T12:11:39.258Z,95052
2022-09-30T12:12:48.919Z,95048
2022-09-30T12:13:58.636Z,95048
2022-09-30T12:15:07.306Z,95050
2022-09-30T12:16:16.025Z,95049
2022-09-30T12:17:25.658Z,95054
2022-09-30T12:18:33.320Z,95051
2022-09-30T12:19:43.011Z,95050
2022-09-30T12:20:51.713Z,95053
2022-09-30T12:22:01.463Z,95053
2022-09-30T12:23:11.119Z,95058
2022-09-30T12:24:18.815Z,95054
2022-09-30T12:25:28.485Z,95052
2022-09-30T12:26:39.170Z,95050
2022-09-30T12:27:47.890Z,95052
2022-09-30T12:28:59.948Z,95044
2022-09-30T12:30:07.185Z,95041
2022-09-30T12:31:16.921Z,95043
2022-09-30T12:32:26.559Z,95046
2022-09-30T12:33:34.242Z,95050
2022-09-30T12:34:43.923Z,95046
2022-09-30T12:35:53.629Z,95048
2022-09-30T12:37:01.360Z,95045
2022-09-30T12:38:10.073Z,95047
2022-09-30T12:39:18.788Z,95040
2022-09-30T12:40:28.486Z,95048
2022-09-30T12:41:38.167Z,95045
2022-09-30T12:42:46.862Z,95050
2022-09-30T12:43:56.545Z,95049
2022-09-30T12:45:06.469Z,95052
2022-09-30T12:46:14.404Z,95057
2022-09-30T12:47:23.058Z,95055
2022-09-30T12:48:31.857Z,95057
2022-09-30T12:49:40.540Z,95054
2022-09-30T12:50:50.229Z,95052
2022-09-30T12:51:58.905Z,95052
2022-09-30T12:53:07.595Z,95049
2022-09-30T12:54:17.417Z,95054
2022-09-30T12:55:26.003Z,95055
2022-09-30T12:56:35.695Z,95053
2022-09-30T12:57:43.367Z,95056
2022-09-30T12:58:53.027Z,95054
2022-09-30T13:00:01.790Z,95053
2022-09-30T13:01:10.528Z,95050
2022-09-30T13:02:19.202Z,95052
2022-09-30T13:03:28.845Z,95050
2022-09-30T13:04:37.516Z,95056
2022-09-30T13:05:47.262Z,95052
2022-09-30T13:06:55.937Z,95056
2022-09-30T13:08:04.662Z,95056
2022-09-30T13:09:14.330Z,95054
2022-09-30T13:10:22.060Z,95054
2022-09-30T13:11:30.687Z,95052
2022-09-30T13:12:40.386Z,95053
2022-09-30T13:13:49.077Z,95047
2022-09-30T13:14:57.776Z,95049
2022-09-30T13:16:06.544Z,95051
2022-09-30T13:17:15.172Z,95048
2022-09-30T13:18:24.862Z,95052
2022-09-30T13:19:32.528Z,95052
2022-09-30T13:20:41.196Z,95050
2022-09-30T13:21:52.062Z,95054
2022-09-30T13:22:58.563Z,95058
2022-09-30T13:24:07.292Z,95050
2022-09-30T13:25:16.978Z,95053
2022-09-30T13:26:26.673Z,95045
2022-09-30T13:27:36.332Z,95050
2022-09-30T13:28:44.023Z,95043
2022-09-30T13:29:53.720Z,95038
2022-09-30T13:31:03.417Z,95035
2022-09-30T13:32:12.082Z,95035
2022-09-30T13:33:20.757Z,95035
2022-09-30T13:34:30.495Z,95035
2022-09-30T13:35:39.161Z,95032
2022-09-30T13:36:48.869Z,95031
2022-09-30T13:37:57.555Z,95031
2022-09-30T13:39:06.337Z,95034
2022-09-30T13:40:16.059Z,95037
2022-09-30T13:41:25.727Z,95031
2022-09-30T13:42:35.434Z,95036
2022-09-30T13:43:45.092Z,95037
2022-09-30T13:44:57.346Z,95037
2022-09-30T13:46:04.459Z,95040
2022-09-30T13:47:14.090Z,95040
2022-09-30T13:48:23.754Z,95042
2022-09-30T13:49:32.433Z,95042
2022-09-30T13:50:41.113Z,95045
2022-09-30T13:51:50.909Z,95050
2022-09-30T13:52:59.581Z,95050
2022-09-30T13:54:08.244Z,95046
2022-09-30T13:55:16.931Z,95042
2022-09-30T13:56:25.609Z,95042
2022-09-30T13:57:35.412Z,95044
2022-09-30T13:58:43.089Z,95045
2022-09-30T13:59:51.724Z,95048
2022-09-30T14:01:01.454Z,95050
2022-09-30T14:02:10.070Z,95045
2022-09-30T14:03:19.818Z,95050
2022-09-30T14:04:28.464Z,95050
2022-09-30T14:05:38.136Z,95048
2022-09-30T14:06:47.798Z,95048
2022-09-30T14:07:56.472Z,95049
2022-09-30T14:09:06.178Z,95051
2022-09-30T14:10:15.842Z,95051
2022-09-30T14:11:23.503Z,95053
2022-09-30T14:12:32.179Z,95056
2022-09-30T14:13:41.844Z,95055
2022-09-30T14:14:51.550Z,95056
2022-09-30T14:16:01.218Z,95055
2022-09-30T14:17:08.857Z,95051
2022-09-30T14:18:22.361Z,95048
2022-09-30T14:19:28.193Z,95049
2022-09-30T14:20:36.900Z,95050
2022-09-30T14:21:45.602Z,95049
2022-09-30T14:22:55.305Z,95049
2022-09-30T14:24:03.977Z,95048
2022-09-30T14:25:13.643Z,95049
2022-09-30T14:26:22.321Z,95053
2022-09-30T14:27:30.981Z,95053
2022-09-30T14:28:40.648Z,95051
2022-09-30T14:29:49.339Z,95048
2022-09-30T14:30:58.023Z,95049
2022-09-30T14:32:07.701Z,95052
2022-09-30T14:33:16.354Z,95052
2022-09-30T14:34:26.040Z,95052
2022-09-30T14:35:33.732Z,95054
2022-09-30T14:36:42.398Z,95058
2022-09-30T14:37:52.101Z,95055
2022-09-30T14:39:00.765Z,95059
2022-09-30T14:40:10.448Z,95059
2022-09-30T14:41:19.132Z,95059
2022-09-30T14:42:27.862Z,95067
2022-09-30T14:43:41.867Z,95060
2022-09-30T14:44:47.197Z,95066
2022-09-30T14:45:56.941Z,95058
2022-09-30T14:47:06.590Z,95056
2022-09-30T14:48:16.233Z,95054
2022-09-30T14:49:24.948Z,95054
2022-09-30T14:50:35.692Z,95055
2022-09-30T14:51:44.451Z,95058
2022-09-30T14:52:53.156Z,95055
2022-09-30T14:54:01.931Z,95057
2022-09-30T14:55:10.652Z,95066